Wetterstation Rottenburg Seebronn / 442m msl / http://mut-lambrecht.de
LETZTE AKTUALISIERUNG UM: 10:10 DATUM: Mai 22 2018, time of next update: 10:15
Aktuelles WetterClear Aktuelle Temperatur 18.4°C (65.1°F) (Hitze-Index 18.4°C ), Apparent temp 19.4°C
Höchsttemperatur (seit Mitternacht)18.4°C um: 10:09 Tiefsttemperatur (seit Mitternacht)10.4°C um: 05:20
Windgeschwindigkeit (10 Minuten )0.2 kmh (0.1 kts) Windrichtung (Dir) (10 Minuten )S (181°)
Windchill Temperatur 18.4°C Windspitzen (letzte Std)9.3 kmh (5.0 kts) um: 09:19
Windspitzen (seit Mitternacht)9.3 kmh (5.0 kts) um: 00:49 Höchstes Windmittel / Minute (seit Mitternacht)5.6 kmh (3.0 kts) um: 00:00
Regenmenge (letzte Std)0.0 mm Regenmenge (seit Mitternacht)0.0 mm (0.00 in.)---
Regenmenge diesen Monat 59.1 mm (2.33 in.) Regenmenge seit Jahresbeginn 230.8 mm (9.09 in.)
Höchste Regenmenge pro Minute (letzte Std)0.0 mm/min Höchste Regenmenge pro Stunde (letzte 6 Std)0.0 mm/stunde
Regenmenge Gestern 0.7 mm Taupunkt 13.7°C (Wet Bulb :15.7°C )
Luftfeuchtigkeit 74 %, Humidex 21.6°C Aktueller Luftdruck (auf Meereshöhe bezogen)1014.3 hPa
Luftdrucktendenz +0.3 hPa (letzte Std) Trend (letzte 1 Std)gleichbleibend
Luftdrucktendenz (letzte 12 Std)-1.0 hPa Luftdrucktendenz (letzte 6 Std)+1.3 hPa



Weather report/warning/Metars

Stuttgart-Echterdingen, Germany (EDDS) 48-41N 009-13E 391M
May 22, 2018 - 03:50 AM EDT / 2018.05.22 0750 UTC
Wind: from the SE (140 degrees) at 3 MPH (3 KT) (direction variable):0
Visibility: greater than 7 mile(s):0
Temperature: 64 F (18 C)
Dew Point: 59 F (15 C)
Relative Humidity: 82%
Pressure (altimeter): 29.91 in. Hg (1013 hPa)
ob: EDDS 220750Z 14003KT 080V250 CAVOK 18/15 Q1013 NOSIG
cycle: 8
Karlsruhe, Baden Wurttemberg, Germany (EDSB) 48-46-43N 008-04-47E
May 22, 2018 - 03:50 AM EDT / 2018.05.22 0750 UTC
Wind: from the SW (230 degrees) at 5 MPH (4 KT) (direction variable):0
Visibility: greater than 7 mile(s):0
Temperature: 64 F (18 C)
Dew Point: 57 F (14 C)
Relative Humidity: 77%
Pressure (altimeter): 29.88 in. Hg (1012 hPa)
ob: EDSB 220750Z 23004KT 170V280 CAVOK 18/14 Q1012
cycle: 8
Lahr, CAN-AFB, Germany (EDTL) 48-22-09N 007-49-40E
May 22, 2018 - 03:50 AM EDT / 2018.05.22 0750 UTC
Wind: from the SW (220 degrees) at 3 MPH (3 KT) (direction variable):0
Visibility: greater than 7 mile(s):0
Temperature: 66 F (19 C)
Dew Point: 59 F (15 C)
Relative Humidity: 77%
Pressure (altimeter): 29.88 in. Hg (1012 hPa)
ob: EDTL 220750Z 22003KT 180V270 CAVOK 19/15 Q1012
cycle: 8
Laupheim, Germany (ETHL) 48-13N 009-55E 550M
May 22, 2018 - 03:20 AM EDT / 2018.05.22 0720 UTC
Wind: from the ENE (070 degrees) at 2 MPH (2 KT):0
Visibility: greater than 7 mile(s):0
Sky conditions: partly cloudy
Temperature: 60 F (16 C)
Dew Point: 53 F (12 C)
Relative Humidity: 77%
Pressure (altimeter): 29.91 in. Hg (1013 hPa)
ob: ETHL 220720Z 07002KT 9999 FEW100 SCT290 16/12 Q1013 BLU+BLU+
cycle: 7


Klicken Sie hier, um zu den Durchschnitts-, Extrem-, Monats- oder Tageswerten zu gelangen


Die Wetterdaten werden alle 5 Minuten aktualisiert.
Die 3 stündige Echtzeitgrafik wird jede Minute aktualisiert.
Bei der 3 stündige Echtzeitgrafik sind derzeit die Skalenfarben von Winddurchschnitt u. Windböen vertauscht. (Softwarebug)

Drücken Sie gegebenenfalls auf "Aktualisieren" in Ihrem Browser, um die aktuellsten Daten zu erhalten.